Acmar, Alabama
Current Conditions -  °F | °C
As of 12:53 PM on Friday 31 Oct 2014 (Local Time) from KBHM Reporting Station
Scattered Clouds Scattered Clouds  
Wind Chill: 64°   Ceiling: Unl
Heat Index: 64°   Visibility: 10mi
Dew Point: 40°   Wind: 7mph
Humidity: 41%   Direction: 300°WNW
Pressure: 29.99"   Gusts: NA
Location:  33.6013°N, 86.5003°W
Report Text: KBHM 311753Z 30006KT 10SM SCT055 18/04 A2999 RMK AO2 SLP153 T01780044 10183 20067 58007
Loading
Personal Weather Stations






























Interactive Weather Map
Tropical Storm Tracking
New forecast layout! Learn more

10-Day Weather Forecast

Advertisements
Track Severe Weather on mobile